Time;durP1;ratioP1;P1;durP2;ratioP2;P2;SDS_P1;SDS_P2;PMS_P1;PMS_P2;Temp;Humidity;BMP_temperature;BMP_pressure;BME280_temperature;BME280_humidity;BME280_pressure;Samples;Min_cycle;Max_cycle;Signal;HPM_P1;HPM_P2
2021/12/21 00:00:59;;;;;;;0.90;0.90;;;20.80;54.90;;;;;;5012710;28;20022;-69
2021/12/21 00:03:25;;;;;;;1.00;0.90;;;20.80;54.90;;;;;;5011331;28;20049;-69
2021/12/21 00:05:50;;;;;;;1.45;1.10;;;20.80;54.90;;;;;;4995527;28;20018;-69
2021/12/21 00:08:17;;;;;;;1.23;1.00;;;20.80;54.90;;;;;;5012301;28;20050;-69
2021/12/21 00:10:45;;;;;;;1.02;0.90;;;20.80;54.90;;;;;;5012956;28;20068;-69
2021/12/21 00:14:11;;;;;;;0.70;0.70;;;20.80;54.90;;;;;;4995418;28;20029;-69
2021/12/21 00:16:04;;;;;;;2.30;1.10;;;20.80;54.90;;;;;;4991210;28;20573;-69
2021/12/21 00:18:39;;;;;;;0.82;0.82;;;20.80;55.00;;;;;;4995982;28;20022;-69
2021/12/21 00:23:43;;;;;;;1.02;1.00;;;20.80;55.00;;;;;;5011492;28;20522;-69
2021/12/21 00:26:12;;;;;;;1.08;0.85;;;20.80;55.00;;;;;;5012600;28;20533;-69
2021/12/21 00:31:25;;;;;;;0.80;0.80;;;20.80;55.00;;;;;;5011863;28;20095;-69
2021/12/21 00:33:50;;;;;;;1.10;1.00;;;20.80;55.10;;;;;;5011133;28;20026;-69
2021/12/21 00:36:18;;;;;;;0.98;0.82;;;20.80;55.10;;;;;;5011278;28;20060;-69
2021/12/21 00:38:45;;;;;;;1.27;0.90;;;20.80;55.10;;;;;;5011580;28;20521;-69
2021/12/21 00:41:10;;;;;;;1.33;0.93;;;20.80;55.20;;;;;;5011231;28;20018;-69
2021/12/21 00:43:36;;;;;;;2.67;1.13;;;20.80;55.10;;;;;;4994885;28;20415;-69
2021/12/21 00:46:02;;;;;;;0.85;0.82;;;20.80;55.10;;;;;;5010756;28;20112;-69
2021/12/21 00:48:29;;;;;;;2.25;1.13;;;20.80;55.20;;;;;;4994903;28;20030;-69
2021/12/21 00:50:59;;;;;;;1.05;1.00;;;20.80;55.20;;;;;;5012473;28;20026;-69
2021/12/21 00:53:25;;;;;;;1.00;1.00;;;20.80;55.20;;;;;;5012454;28;20021;-69
2021/12/21 00:55:51;;;;;;;1.40;1.00;;;20.80;55.20;;;;;;4994835;28;20123;-69
2021/12/21 00:58:17;;;;;;;0.90;0.90;;;20.80;55.20;;;;;;5010941;28;20080;-69
2021/12/21 01:00:42;;;;;;;1.20;1.10;;;20.80;55.30;;;;;;5011996;28;20029;-69
2021/12/21 01:03:11;;;;;;;0.80;0.80;;;20.80;55.30;;;;;;5002672;28;20018;-69
2021/12/21 01:05:48;;;;;;;0.88;0.77;;;20.80;55.30;;;;;;4991475;28;20029;-69
2021/12/21 01:08:19;;;;;;;1.05;0.98;;;20.80;55.30;;;;;;4992428;28;20520;-69
2021/12/21 01:11:02;;;;;;;1.00;1.00;;;20.80;55.40;;;;;;4991887;28;20106;-69
2021/12/21 01:19:17;;;;;;;1.23;1.00;;;20.80;55.40;;;;;;4991559;28;20429;-69
2021/12/21 01:22:01;;;;;;;3.42;1.00;;;20.80;55.40;;;;;;4994248;28;20038;-69
2021/12/21 01:29:35;;;;;;;1.20;1.02;;;20.80;56.40;;;;;;4995039;28;20026;-69
2021/12/21 01:32:09;;;;;;;2.45;1.10;;;20.80;55.50;;;;;;4994855;28;20093;-69
2021/12/21 01:34:56;;;;;;;0.88;0.88;;;20.80;55.50;;;;;;4996126;28;20027;-69
2021/12/21 01:37:51;;;;;;;1.10;1.00;;;20.80;55.50;;;;;;4995853;28;20034;-69
2021/12/21 01:41:23;;;;;;;0.80;0.80;;;20.80;55.50;;;;;;4995652;28;20488;-69
2021/12/21 01:43:24;;;;;;;3.58;0.90;;;20.80;55.60;;;;;;4986653;28;20042;-69
2021/12/21 01:51:19;;;;;;;1.20;1.10;;;20.80;55.70;;;;;;5014063;28;20033;-69
2021/12/21 01:53:44;;;;;;;0.90;0.90;;;20.70;55.70;;;;;;5015094;28;20022;-69
2021/12/21 01:56:10;;;;;;;0.95;0.93;;;20.70;55.70;;;;;;5014076;28;20018;-69
2021/12/21 01:58:37;;;;;;;3.10;0.88;;;20.80;55.80;;;;;;5013618;28;20381;-69
2021/12/21 02:01:07;;;;;;;1.50;0.88;;;20.80;55.80;;;;;;5013776;28;20033;-69
2021/12/21 02:03:32;;;;;;;0.80;0.80;;;20.80;55.70;;;;;;5013644;28;20026;-69
2021/12/21 02:05:58;;;;;;;1.10;0.93;;;20.80;55.80;;;;;;5013805;28;20026;-69
2021/12/21 02:08:24;;;;;;;1.63;0.90;;;20.80;55.70;;;;;;5013520;28;20054;-69
2021/12/21 02:10:49;;;;;;;1.75;0.88;;;20.80;55.80;;;;;;5013883;28;20033;-69
2021/12/21 02:13:15;;;;;;;1.30;1.00;;;20.80;55.80;;;;;;5014512;28;20034;-69
2021/12/21 02:15:40;;;;;;;0.90;0.90;;;20.80;55.80;;;;;;5013728;28;20076;-69
2021/12/21 02:21:01;;;;;;;0.90;0.90;;;20.80;55.80;;;;;;5013878;28;20041;-69
2021/12/21 02:23:33;;;;;;;0.85;0.85;;;20.80;55.90;;;;;;5014724;28;20105;-69
2021/12/21 02:26:35;;;;;;;1.37;0.90;;;20.80;55.90;;;;;;4997921;28;20076;-69
2021/12/21 02:31:46;;;;;;;0.98;0.98;;;20.80;55.90;;;;;;5013176;28;20033;-69
2021/12/21 02:34:12;;;;;;;1.20;0.90;;;20.80;55.90;;;;;;5013509;28;20022;-69
2021/12/21 02:36:38;;;;;;;0.90;0.90;;;20.80;55.90;;;;;;5014399;28;20040;-69
2021/12/21 02:39:04;;;;;;;1.27;0.90;;;20.80;55.90;;;;;;5014482;28;20073;-69
2021/12/21 02:41:29;;;;;;;1.10;0.95;;;20.80;55.90;;;;;;5012795;28;20032;-69
2021/12/21 02:43:56;;;;;;;1.00;0.90;;;20.80;55.90;;;;;;4996374;28;20022;-69
2021/12/21 02:46:22;;;;;;;1.17;0.93;;;20.80;55.90;;;;;;5013992;28;20022;-69
2021/12/21 02:48:48;;;;;;;1.15;1.15;;;20.80;55.90;;;;;;5013208;28;20018;-69
2021/12/21 02:51:13;;;;;;;0.82;0.82;;;20.80;55.90;;;;;;5012870;28;20033;-69
2021/12/21 02:53:39;;;;;;;1.10;1.10;;;20.80;55.90;;;;;;5014001;28;20050;-69
2021/12/21 02:56:06;;;;;;;0.70;0.70;;;20.80;55.90;;;;;;4996827;28;20030;-69
2021/12/21 02:58:32;;;;;;;5.18;0.90;;;20.80;55.90;;;;;;5012363;28;20477;-69
2021/12/21 03:00:58;;;;;;;0.80;0.80;;;20.80;55.90;;;;;;4996362;28;20036;-69
2021/12/21 03:03:26;;;;;;;0.88;0.88;;;20.80;56.90;;;;;;5001071;28;20097;-69
2021/12/21 03:05:55;;;;;;;1.02;0.93;;;20.70;55.80;;;;;;4994265;28;20044;-69
2021/12/21 03:08:23;;;;;;;0.88;0.88;;;20.70;55.90;;;;;;4992788;28;20038;-69
2021/12/21 03:11:09;;;;;;;1.15;1.00;;;20.80;55.90;;;;;;4993197;28;20026;-69
2021/12/21 03:14:03;;;;;;;1.10;0.82;;;20.80;55.90;;;;;;4979578;28;20030;-69
2021/12/21 03:16:35;;;;;;;0.90;0.90;;;20.70;55.80;;;;;;4980666;28;20046;-70
2021/12/21 03:19:00;;;;;;;3.15;1.20;;;20.70;55.90;;;;;;4976924;28;20473;-70
2021/12/21 03:21:28;;;;;;;0.80;0.80;;;20.80;55.90;;;;;;4992679;28;20026;-70
2021/12/21 03:23:53;;;;;;;0.90;0.90;;;20.70;55.90;;;;;;4976878;28;20105;-70
2021/12/21 03:26:19;;;;;;;0.88;0.77;;;20.70;55.90;;;;;;4992116;28;20114;-70
2021/12/21 03:28:45;;;;;;;3.42;0.90;;;20.70;55.90;;;;;;4992809;28;20461;-70
2021/12/21 03:31:11;;;;;;;0.80;0.80;;;20.70;55.90;;;;;;4976567;28;20030;-70
2021/12/21 03:33:37;;;;;;;0.95;0.95;;;20.70;56.00;;;;;;4992540;28;20050;-70
2021/12/21 03:36:04;;;;;;;1.10;1.00;;;20.70;55.90;;;;;;4976597;28;20068;-69
2021/12/21 03:38:30;;;;;;;0.90;0.85;;;20.70;56.00;;;;;;4992406;28;20121;-70
2021/12/21 03:41:02;;;;;;;0.90;0.90;;;20.80;56.00;;;;;;4993398;28;20030;-70
2021/12/21 03:43:30;;;;;;;0.80;0.80;;;20.80;56.00;;;;;;4976716;28;20109;-70
2021/12/21 03:46:05;;;;;;;0.90;0.90;;;20.70;56.00;;;;;;4994301;28;20065;-70
2021/12/21 03:48:31;;;;;;;2.42;1.00;;;20.70;56.10;;;;;;5011981;28;20439;-70
2021/12/21 03:50:56;;;;;;;0.70;0.70;;;20.70;56.10;;;;;;4995679;28;20029;-70
2021/12/21 03:53:22;;;;;;;0.80;0.80;;;20.70;56.10;;;;;;5013005;28;20022;-70
2021/12/21 03:55:56;;;;;;;0.70;0.70;;;20.70;56.10;;;;;;5012608;28;20053;-70
2021/12/21 03:58:21;;;;;;;1.10;1.00;;;20.70;56.10;;;;;;5013152;28;20527;-70
2021/12/21 04:00:47;;;;;;;0.95;0.95;;;20.70;56.10;;;;;;5012820;28;20117;-70
2021/12/21 04:03:12;;;;;;;0.80;0.77;;;20.70;56.10;;;;;;5002626;28;20030;-70
2021/12/21 04:05:38;;;;;;;0.80;0.80;;;20.70;56.20;;;;;;4991798;28;20035;-70
2021/12/21 04:08:04;;;;;;;0.77;0.77;;;20.70;56.20;;;;;;4991874;28;20042;-70
2021/12/21 04:10:29;;;;;;;1.95;0.93;;;20.70;56.20;;;;;;4991477;28;20034;-70
2021/12/21 04:12:55;;;;;;;0.77;0.77;;;20.70;56.20;;;;;;4993168;28;20546;-70
2021/12/21 04:15:24;;;;;;;2.38;0.80;;;20.70;56.20;;;;;;4991987;28;20023;-70
2021/12/21 04:17:49;;;;;;;1.50;0.70;;;20.70;56.20;;;;;;4992997;28;20080;-70
2021/12/21 04:20:15;;;;;;;0.70;0.70;;;20.70;56.20;;;;;;4991889;28;20479;-70
2021/12/21 04:22:41;;;;;;;0.70;0.70;;;20.70;56.20;;;;;;4992962;28;20551;-70
2021/12/21 04:25:07;;;;;;;1.10;0.98;;;20.70;56.20;;;;;;4991635;28;20027;-70
2021/12/21 04:27:32;;;;;;;0.75;0.75;;;20.70;56.20;;;;;;4991960;28;20049;-70
2021/12/21 04:29:58;;;;;;;1.00;0.90;;;20.70;56.20;;;;;;4992867;28;20481;-70
2021/12/21 04:32:24;;;;;;;2.05;0.93;;;20.70;56.30;;;;;;4991590;28;20033;-70
2021/12/21 04:34:49;;;;;;;1.13;0.90;;;20.70;56.30;;;;;;4991812;28;20030;-70
2021/12/21 04:37:16;;;;;;;0.70;0.70;;;20.70;56.30;;;;;;4992832;28;20035;-69
2021/12/21 04:39:52;;;;;;;0.90;0.90;;;20.70;56.30;;;;;;4991102;28;20022;-70
2021/12/21 04:42:18;;;;;;;0.70;0.70;;;20.70;56.40;;;;;;4992880;28;20027;-70
2021/12/21 04:44:43;;;;;;;0.77;0.77;;;20.70;56.30;;;;;;4999903;28;20033;-70
2021/12/21 04:47:09;;;;;;;0.88;0.80;;;20.70;56.40;;;;;;5011154;28;20484;-70
2021/12/21 04:49:34;;;;;;;1.00;0.73;;;20.70;56.40;;;;;;5012344;28;20029;-70
2021/12/21 04:52:00;;;;;;;1.20;0.88;;;20.70;56.40;;;;;;5011181;28;20026;-70
2021/12/21 04:54:26;;;;;;;0.70;0.70;;;20.70;56.40;;;;;;5010869;28;20033;-70
2021/12/21 04:56:51;;;;;;;0.75;0.75;;;20.70;56.40;;;;;;5014945;28;20546;-70
2021/12/21 04:59:17;;;;;;;1.60;0.70;;;20.70;56.40;;;;;;4998963;28;20029;-70
2021/12/21 05:01:43;;;;;;;0.80;0.80;;;20.70;56.50;;;;;;5016064;28;20396;-70
2021/12/21 05:04:09;;;;;;;0.80;0.70;;;20.70;56.40;;;;;;5015999;28;20161;-70
2021/12/21 05:06:34;;;;;;;0.70;0.70;;;20.70;56.40;;;;;;5015763;28;20030;-70
2021/12/21 05:09:07;;;;;;;1.08;0.98;;;20.70;56.50;;;;;;5015877;28;20129;-70
2021/12/21 05:11:35;;;;;;;1.17;0.80;;;20.70;56.50;;;;;;5014941;28;20105;-70
2021/12/21 05:14:01;;;;;;;0.80;0.80;;;20.70;56.50;;;;;;4998705;28;20440;-70
2021/12/21 05:16:26;;;;;;;0.93;0.90;;;20.70;56.60;;;;;;4998391;28;20113;-70
2021/12/21 05:18:52;;;;;;;0.73;0.70;;;20.70;56.60;;;;;;5016080;28;20052;-70
2021/12/21 05:21:18;;;;;;;0.75;0.75;;;20.70;56.50;;;;;;5014652;28;20037;-70
2021/12/21 05:23:43;;;;;;;1.08;0.80;;;20.70;56.50;;;;;;5014224;28;20026;-70
2021/12/21 05:26:09;;;;;;;0.88;0.88;;;20.60;56.50;;;;;;5015878;28;20060;-70
2021/12/21 05:28:34;;;;;;;1.00;0.70;;;20.70;56.60;;;;;;5015678;28;20026;-70
2021/12/21 05:31:00;;;;;;;0.80;0.80;;;20.60;56.50;;;;;;5014482;28;20088;-70
2021/12/21 05:33:29;;;;;;;1.30;0.90;;;20.70;56.60;;;;;;5015875;28;20577;-70
2021/12/21 05:35:55;;;;;;;0.70;0.70;;;20.60;56.60;;;;;;5015465;28;20038;-70
2021/12/21 05:38:29;;;;;;;0.90;0.90;;;20.70;56.60;;;;;;5014275;28;20544;-70
2021/12/21 05:40:56;;;;;;;0.70;0.70;;;20.70;56.60;;;;;;5014400;28;20026;-70
2021/12/21 05:43:22;;;;;;;0.73;0.73;;;20.60;56.60;;;;;;5015490;28;20096;-70
2021/12/21 05:45:48;;;;;;;0.73;0.73;;;20.60;56.60;;;;;;5013845;28;20053;-70
2021/12/21 05:48:13;;;;;;;0.70;0.70;;;20.70;56.70;;;;;;5014375;28;20038;-70
2021/12/21 05:50:39;;;;;;;0.73;0.73;;;20.70;56.90;;;;;;5014760;28;20400;-70
2021/12/21 05:53:05;;;;;;;0.70;0.70;;;20.60;56.60;;;;;;5014007;28;20101;-70
2021/12/21 05:55:30;;;;;;;0.50;0.50;;;20.70;56.70;;;;;;4997820;28;20523;-70
2021/12/21 05:57:56;;;;;;;0.80;0.80;;;20.60;56.60;;;;;;5014087;28;20076;-70
2021/12/21 06:00:24;;;;;;;0.68;0.68;;;20.60;56.60;;;;;;5015113;28;20374;-70
2021/12/21 06:02:50;;;;;;;0.70;0.70;;;20.60;56.70;;;;;;5006767;28;20071;-70
2021/12/21 06:05:16;;;;;;;0.80;0.80;;;20.60;56.70;;;;;;4995031;28;20497;-70
2021/12/21 06:07:41;;;;;;;0.70;0.70;;;20.60;56.70;;;;;;4993234;28;20038;-70
2021/12/21 06:10:15;;;;;;;0.80;0.80;;;20.60;56.70;;;;;;4994261;28;20038;-70
2021/12/21 06:13:17;;;;;;;0.73;0.73;;;20.60;56.70;;;;;;4994212;28;20068;-70
2021/12/21 06:22:45;;;;;;;0.70;0.70;;;20.60;57.80;;;;;;4941042;29;20075;-70
2021/12/21 06:26:41;;;;;;;0.75;0.75;;;20.50;56.80;;;;;;4954156;29;20045;-70
2021/12/21 06:29:07;;;;;;;0.73;0.73;;;20.60;56.90;;;;;;4954195;29;20541;-70
2021/12/21 06:31:33;;;;;;;0.80;0.60;;;20.60;56.90;;;;;;4954131;29;20051;-70
2021/12/21 06:33:58;;;;;;;0.65;0.65;;;20.60;56.90;;;;;;4953550;29;20031;-70
2021/12/21 06:36:24;;;;;;;0.63;0.63;;;20.60;56.90;;;;;;4954024;29;20113;-70
2021/12/21 06:38:50;;;;;;;0.60;0.60;;;20.60;56.90;;;;;;4954045;29;20118;-70
2021/12/21 06:41:16;;;;;;;0.60;0.60;;;20.60;56.90;;;;;;4953664;29;20242;-70
2021/12/21 06:43:42;;;;;;;0.60;0.60;;;20.60;56.90;;;;;;4953745;28;20587;-70
2021/12/21 06:53:48;;;;;;;1.17;0.60;;;20.60;56.90;;;;;;4972775;28;20027;-70
2021/12/21 06:56:14;;;;;;;0.70;0.70;;;20.60;56.90;;;;;;4973038;28;20034;-70
2021/12/21 06:58:39;;;;;;;0.70;0.70;;;20.60;57.00;;;;;;4986704;28;20394;-70
2021/12/21 07:01:05;;;;;;;0.60;0.60;;;20.60;56.90;;;;;;4993048;28;20100;-70
2021/12/21 07:03:31;;;;;;;0.90;0.90;;;20.60;56.90;;;;;;5001995;28;20072;-70
2021/12/21 07:05:59;;;;;;;0.80;0.80;;;20.60;57.00;;;;;;4994135;28;20109;-70
2021/12/21 07:08:28;;;;;;;0.88;0.65;;;20.60;57.00;;;;;;4993018;28;20096;-70
2021/12/21 07:11:08;;;;;;;0.70;0.70;;;20.60;57.00;;;;;;4993308;28;20121;-70
2021/12/21 07:19:03;;;;;;;0.70;0.70;;;20.50;57.00;;;;;;4992582;28;20448;-70
2021/12/21 07:21:28;;;;;;;0.77;0.52;;;20.60;57.00;;;;;;4976748;28;20026;-70
2021/12/21 07:23:54;;;;;;;0.90;0.70;;;20.50;57.00;;;;;;4992652;28;20049;-70
2021/12/21 07:26:19;;;;;;;0.70;0.70;;;20.60;57.00;;;;;;4993905;28;20046;-70
2021/12/21 07:28:45;;;;;;;0.80;0.70;;;20.60;57.10;;;;;;4992638;28;20026;-70
2021/12/21 07:31:11;;;;;;;0.68;0.68;;;20.60;57.10;;;;;;4993778;28;20452;-70
2021/12/21 07:33:36;;;;;;;0.50;0.50;;;20.60;57.10;;;;;;4997586;28;20491;-70
2021/12/21 07:36:03;;;;;;;0.60;0.60;;;20.50;57.00;;;;;;5002795;28;20030;-70
2021/12/21 07:38:30;;;;;;;0.60;0.60;;;20.60;57.10;;;;;;5001600;28;20023;-69
2021/12/21 07:41:00;;;;;;;0.70;0.70;;;20.60;57.10;;;;;;4990515;28;20026;-70
2021/12/21 07:43:25;;;;;;;0.68;0.60;;;20.60;57.10;;;;;;5003526;28;20025;-69
2021/12/21 07:45:51;;;;;;;0.70;0.60;;;20.50;57.10;;;;;;5004570;28;20026;-70
2021/12/21 07:48:17;;;;;;;0.63;0.63;;;20.60;57.10;;;;;;4988198;28;20093;-69
2021/12/21 07:50:43;;;;;;;1.48;0.90;;;20.50;57.00;;;;;;4997835;28;20022;-69
2021/12/21 07:53:09;;;;;;;0.80;0.68;;;20.60;57.10;;;;;;5008219;28;20058;-70
2021/12/21 07:55:35;;;;;;;1.88;0.90;;;20.60;57.20;;;;;;5008129;28;20057;-70
2021/12/21 07:58:00;;;;;;;4.25;1.10;;;20.60;57.10;;;;;;5007768;28;20061;-70
2021/12/21 08:00:26;;;;;;;1.10;1.10;;;20.50;56.80;;;;;;5001530;28;20041;-78
2021/12/21 08:02:54;;;;;;;1.08;1.08;;;20.50;56.80;;;;;;5005674;28;20014;-79
2021/12/21 08:05:20;;;;;;;1.10;1.10;;;20.50;57.00;;;;;;5008207;28;20480;-79
2021/12/21 08:07:54;;;;;;;0.90;0.90;;;20.50;57.00;;;;;;5000009;28;20075;-72
2021/12/21 08:10:41;;;;;;;1.00;1.00;;;20.50;57.10;;;;;;5009606;28;20030;-75
2021/12/21 08:13:06;;;;;;;2.58;0.98;;;20.50;57.20;;;;;;5011947;28;20033;-74
2021/12/21 08:15:31;;;;;;;1.10;1.00;;;20.50;57.20;;;;;;5010892;28;20026;-76
2021/12/21 08:17:57;;;;;;;1.02;0.90;;;20.50;57.10;;;;;;5008632;28;20101;-80
2021/12/21 08:20:22;;;;;;;0.90;0.90;;;20.60;57.10;;;;;;5011015;28;20503;-80
2021/12/21 08:22:48;;;;;;;0.85;0.80;;;20.60;57.20;;;;;;5003422;28;20037;-80
2021/12/21 08:25:14;;;;;;;0.80;0.80;;;20.60;57.20;;;;;;5011695;28;20026;-80
2021/12/21 08:27:40;;;;;;;1.00;1.00;;;20.70;57.20;;;;;;5005137;28;20022;-82
2021/12/21 08:30:07;;;;;;;0.80;0.80;;;20.70;57.20;;;;;;5008362;28;20026;-82
2021/12/21 08:32:32;;;;;;;1.52;0.80;;;20.70;57.20;;;;;;5011209;28;20032;-81
2021/12/21 08:34:58;;;;;;;0.88;0.88;;;20.70;57.10;;;;;;5004879;28;20031;-83
2021/12/21 08:37:24;;;;;;;1.00;1.00;;;20.80;57.10;;;;;;4983996;28;20034;-81
2021/12/21 08:39:49;;;;;;;0.88;0.88;;;20.80;57.10;;;;;;4999546;28;20530;-77
2021/12/21 08:42:16;;;;;;;1.05;0.98;;;20.80;57.10;;;;;;5002221;28;20084;-81
2021/12/21 08:44:44;;;;;;;0.80;0.80;;;20.80;57.10;;;;;;5011123;28;20117;-82
2021/12/21 08:47:10;;;;;;;0.80;0.80;;;20.80;57.10;;;;;;5000631;28;20021;-81
2021/12/21 08:49:35;;;;;;;0.80;0.80;;;20.90;57.10;;;;;;4998138;28;20026;-76
2021/12/21 08:52:01;;;;;;;0.80;0.80;;;20.90;57.10;;;;;;5003746;28;20094;-77
2021/12/21 08:54:27;;;;;;;0.70;0.70;;;20.90;57.00;;;;;;5011612;28;20393;-79
2021/12/21 08:56:52;;;;;;;0.80;0.80;;;20.90;57.00;;;;;;4994258;28;20022;-77
2021/12/21 08:59:18;;;;;;;1.15;0.82;;;20.90;57.00;;;;;;5010175;28;20037;-78
2021/12/21 09:01:44;;;;;;;1.15;0.88;;;20.90;57.10;;;;;;4993810;28;20041;-78
2021/12/21 09:04:10;;;;;;;0.90;0.90;;;21.00;57.00;;;;;;4980568;28;20022;-78
2021/12/21 09:06:36;;;;;;;0.63;0.63;;;21.00;57.00;;;;;;5010325;28;20021;-79
2021/12/21 09:09:02;;;;;;;0.80;0.80;;;21.00;57.00;;;;;;4990600;28;20378;-79
2021/12/21 09:11:28;;;;;;;0.80;0.80;;;21.00;56.90;;;;;;5002927;28;20033;-77
2021/12/21 09:13:53;;;;;;;0.63;0.63;;;21.00;56.90;;;;;;5011439;28;20116;-75
2021/12/21 09:16:19;;;;;;;0.93;0.75;;;21.00;56.90;;;;;;5009377;28;20496;-76
2021/12/21 09:18:45;;;;;;;0.80;0.80;;;21.10;56.90;;;;;;5010570;28;20105;-76
2021/12/21 09:21:11;;;;;;;0.88;0.88;;;21.10;56.80;;;;;;5009602;28;20416;-76
2021/12/21 09:23:38;;;;;;;0.80;0.80;;;21.10;56.90;;;;;;5010400;28;20053;-77
2021/12/21 09:26:04;;;;;;;0.70;0.70;;;21.10;56.90;;;;;;4993219;28;20480;-76
2021/12/21 09:28:29;;;;;;;1.83;0.82;;;21.10;56.80;;;;;;5009208;28;20029;-76
2021/12/21 09:30:55;;;;;;;0.98;0.70;;;21.10;56.70;;;;;;4996237;28;20026;-76
2021/12/21 09:33:20;;;;;;;0.63;0.63;;;21.20;56.80;;;;;;5006570;28;20052;-76
2021/12/21 09:35:46;;;;;;;0.70;0.70;;;21.20;56.70;;;;;;4988141;28;20026;-75
2021/12/21 09:38:12;;;;;;;0.68;0.68;;;21.20;56.70;;;;;;5001704;28;20034;-76
2021/12/21 09:40:39;;;;;;;0.60;0.60;;;21.20;56.60;;;;;;4998427;28;20022;-76
2021/12/21 09:43:08;;;;;;;0.60;0.60;;;21.20;56.60;;;;;;5003066;28;20089;-76
2021/12/21 09:45:34;;;;;;;0.80;0.80;;;21.20;56.70;;;;;;5000347;28;20014;-78
2021/12/21 09:47:59;;;;;;;1.20;0.82;;;21.30;56.70;;;;;;5012974;28;20032;-74
2021/12/21 09:50:29;;;;;;;0.80;0.80;;;21.30;56.70;;;;;;5006075;28;20076;-74
2021/12/21 09:52:55;;;;;;;0.90;0.90;;;21.30;56.60;;;;;;5007326;28;20110;-74
2021/12/21 09:55:20;;;;;;;1.13;1.00;;;21.30;56.60;;;;;;5003686;28;20038;-74
2021/12/21 09:57:47;;;;;;;2.75;1.00;;;21.30;56.50;;;;;;4988748;28;20022;-74
2021/12/21 10:00:18;;;;;;;1.65;0.88;;;21.30;56.50;;;;;;5012454;28;20460;-72
2021/12/21 10:02:44;;;;;;;0.80;0.80;;;21.30;56.40;;;;;;5011790;28;20028;-73
2021/12/21 10:05:12;;;;;;;0.88;0.88;;;21.30;56.40;;;;;;5012434;28;20022;-80
2021/12/21 10:07:37;;;;;;;1.75;0.90;;;21.30;56.50;;;;;;4989458;28;20050;-80
2021/12/21 10:10:14;;;;;;;0.93;0.80;;;21.30;56.50;;;;;;5013371;28;20519;-79
2021/12/21 10:12:42;;;;;;;0.98;0.80;;;21.30;56.50;;;;;;5005528;28;20026;-80
2021/12/21 10:15:11;;;;;;;0.82;0.82;;;21.30;56.40;;;;;;5013331;28;20026;-81
2021/12/21 10:17:38;;;;;;;0.90;0.73;;;21.30;56.50;;;;;;5012866;28;20022;-75
2021/12/21 10:20:05;;;;;;;1.95;0.80;;;21.30;56.40;;;;;;4993835;28;20026;-73
2021/12/21 10:22:31;;;;;;;1.15;1.05;;;21.30;56.30;;;;;;5002097;28;20113;-73
2021/12/21 10:24:58;;;;;;;1.60;0.90;;;21.30;56.40;;;;;;4991409;28;20163;-73
2021/12/21 10:27:24;;;;;;;1.17;0.90;;;21.40;56.40;;;;;;5006087;28;20023;-74
2021/12/21 10:29:56;;;;;;;0.77;0.77;;;21.40;56.30;;;;;;5012972;28;20018;-77
2021/12/21 10:32:28;;;;;;;0.80;0.80;;;21.40;56.20;;;;;;5004049;28;20029;-80
2021/12/21 10:34:57;;;;;;;1.02;0.93;;;21.40;56.30;;;;;;4985630;28;20109;-79
2021/12/21 10:37:27;;;;;;;1.58;0.80;;;21.40;56.30;;;;;;4969759;28;20421;-75
2021/12/21 10:40:05;;;;;;;1.38;0.70;;;21.40;56.20;;;;;;4989429;28;20025;-69
2021/12/21 10:42:31;;;;;;;8.73;7.90;;;21.40;56.30;;;;;;5003535;28;20408;-67
2021/12/21 10:45:06;;;;;;;13.52;11.98;;;21.30;54.60;;;;;;5006074;28;20025;-69
2021/12/21 10:47:33;;;;;;;12.18;10.98;;;21.20;53.70;;;;;;5002501;28;20065;-68
2021/12/21 10:49:59;;;;;;;11.18;10.27;;;21.00;52.20;;;;;;5003309;28;20022;-68
2021/12/21 10:52:25;;;;;;;9.75;8.93;;;20.70;51.90;;;;;;4992943;28;20033;-68
2021/12/21 10:54:50;;;;;;;9.25;8.40;;;20.50;51.60;;;;;;5013572;28;20018;-68
2021/12/21 10:57:24;;;;;;;9.07;8.27;;;20.30;51.50;;;;;;4995372;28;20033;-68
2021/12/21 10:59:53;;;;;;;8.85;8.05;;;20.10;51.30;;;;;;4993159;28;20011;-68
2021/12/21 11:02:28;;;;;;;8.40;7.70;;;20.00;50.90;;;;;;5009777;28;20022;-68
2021/12/21 11:05:01;;;;;;;8.25;7.55;;;19.80;51.20;;;;;;4992482;28;20388;-68
2021/12/21 11:07:32;;;;;;;7.95;7.25;;;19.70;50.80;;;;;;5011004;28;20508;-68
2021/12/21 11:10:10;;;;;;;9.67;7.93;;;19.50;49.40;;;;;;4984853;28;20049;-68
2021/12/21 11:12:50;;;;;;;8.52;7.82;;;19.40;50.90;;;;;;5003799;28;20084;-68
2021/12/21 11:15:17;;;;;;;7.90;7.25;;;19.20;49.80;;;;;;5004283;28;20037;-68
2021/12/21 11:17:43;;;;;;;7.80;7.20;;;19.10;50.00;;;;;;4988248;28;20018;-68
2021/12/21 11:20:10;;;;;;;8.40;7.60;;;19.00;49.70;;;;;;5012192;28;20026;-68
2021/12/21 11:22:37;;;;;;;7.75;7.05;;;18.90;49.40;;;;;;5010274;28;20092;-68
2021/12/21 11:25:04;;;;;;;7.35;6.75;;;18.70;49.60;;;;;;5006811;28;20029;-68
2021/12/21 11:27:29;;;;;;;7.60;7.00;;;18.70;49.70;;;;;;5012035;28;20014;-68
2021/12/21 11:29:57;;;;;;;7.50;6.90;;;18.60;49.10;;;;;;5013054;28;20026;-68
2021/12/21 11:32:23;;;;;;;7.13;6.43;;;18.50;49.50;;;;;;4988211;28;20458;-68
2021/12/21 11:37:20;;;;;;;7.55;6.85;;;18.40;49.10;;;;;;5008828;28;20096;-68
2021/12/21 11:37:45;;;;;;;9.35;8.48;;;18.40;49.40;;;;;;4997990;28;20026;-67
2021/12/21 11:40:13;;;;;;;8.23;7.53;;;18.30;49.10;;;;;;5012901;28;20022;-67
2021/12/21 11:42:46;;;;;;;8.32;7.53;;;18.20;48.70;;;;;;5004946;28;20022;-67
2021/12/21 11:45:14;;;;;;;8.05;7.35;;;18.10;48.80;;;;;;4983657;28;20525;-67
2021/12/21 11:47:42;;;;;;;8.30;7.60;;;18.00;48.60;;;;;;5001674;28;20030;-67
2021/12/21 11:50:09;;;;;;;8.43;7.63;;;17.90;48.30;;;;;;5010610;28;20025;-67
2021/12/21 11:52:46;;;;;;;7.85;7.10;;;17.90;48.30;;;;;;5003823;28;20056;-72
2021/12/21 11:55:12;;;;;;;7.72;7.00;;;17.90;48.30;;;;;;4987007;28;20061;-74
2021/12/21 11:57:47;;;;;;;6.95;4.90;;;17.80;49.70;;;;;;4987014;28;20026;-74
2021/12/21 12:00:24;;;;;;;6.93;4.90;;;18.00;51.50;;;;;;5005468;28;20050;-74
2021/12/21 12:02:50;;;;;;;7.82;4.43;;;18.20;52.30;;;;;;5002918;28;20378;-75
2021/12/21 12:05:16;;;;;;;8.85;3.97;;;18.40;52.80;;;;;;5009978;28;20022;-75
2021/12/21 12:07:41;;;;;;;5.13;3.40;;;18.50;53.10;;;;;;5001337;28;20050;-75
2021/12/21 12:10:10;;;;;;;6.03;3.55;;;18.70;53.10;;;;;;4985372;28;20018;-74
2021/12/21 12:12:35;;;;;;;6.15;3.03;;;18.80;53.00;;;;;;5006691;28;20563;-74
2021/12/21 12:15:03;;;;;;;6.95;3.30;;;18.90;52.80;;;;;;5001825;28;20114;-75
2021/12/21 12:17:30;;;;;;;5.38;3.25;;;19.10;53.00;;;;;;4997040;28;20025;-75
2021/12/21 12:20:03;;;;;;;5.50;2.75;;;19.10;53.00;;;;;;4987364;28;20108;-75
2021/12/21 12:22:32;;;;;;;3.85;3.00;;;19.20;52.90;;;;;;5003162;28;20030;-74
2021/12/21 12:24:58;;;;;;;5.53;2.90;;;19.30;53.20;;;;;;5001224;28;20019;-77
2021/12/21 12:27:25;;;;;;;6.55;3.05;;;19.40;53.10;;;;;;5005646;28;20076;-77
2021/12/21 12:30:14;;;;;;;3.28;2.25;;;19.50;53.20;;;;;;5009052;28;20121;-78
2021/12/21 12:32:41;;;;;;;5.53;2.80;;;19.50;53.00;;;;;;5004904;28;20018;-77
2021/12/21 12:35:14;;;;;;;3.67;2.20;;;19.60;53.20;;;;;;5008202;28;20017;-76
2021/12/21 12:38:12;;;;;;;3.70;2.67;;;19.70;53.20;;;;;;5008763;28;20507;-76
2021/12/21 12:40:42;;;;;;;3.00;2.20;;;19.80;53.20;;;;;;4984875;28;20030;-76
2021/12/21 12:43:12;;;;;;;4.50;2.60;;;19.80;53.60;;;;;;5002940;28;20070;-77
2021/12/21 12:45:46;;;;;;;4.10;2.38;;;19.80;53.70;;;;;;4989463;28;20383;-77
2021/12/21 12:48:18;;;;;;;3.55;2.78;;;19.90;53.90;;;;;;5007514;28;20057;-77
2021/12/21 12:50:45;;;;;;;3.53;2.65;;;19.90;53.80;;;;;;4998327;28;20053;-77
2021/12/21 12:53:10;;;;;;;2.42;1.92;;;20.00;53.80;;;;;;4986217;28;20030;-76
2021/12/21 12:55:57;;;;;;;2.70;2.28;;;20.10;53.70;;;;;;4996514;28;20077;-83
2021/12/21 12:58:25;;;;;;;3.60;2.30;;;20.20;53.60;;;;;;4986048;28;20026;-68
2021/12/21 13:01:01;;;;;;;3.75;2.20;;;20.20;53.50;;;;;;5002617;28;20077;-68
2021/12/21 13:03:35;;;;;;;2.30;2.10;;;20.20;53.30;;;;;;4999973;28;20025;-68
2021/12/21 13:06:06;;;;;;;2.47;1.70;;;20.30;53.30;;;;;;5006392;28;20022;-67
2021/12/21 13:08:32;;;;;;;2.10;1.88;;;20.30;53.30;;;;;;5004676;28;20132;-68
2021/12/21 13:10:58;;;;;;;2.10;1.58;;;20.30;53.20;;;;;;4996299;28;20149;-73
2021/12/21 13:13:40;;;;;;;2.47;1.98;;;20.30;53.20;;;;;;4974971;28;20049;-75
2021/12/21 13:16:17;;;;;;;2.47;1.77;;;20.40;54.40;;;;;;4986286;28;20018;-67
2021/12/21 13:18:43;;;;;;;3.25;1.92;;;20.40;53.50;;;;;;4999683;28;20113;-68
2021/12/21 13:21:25;;;;;;;2.05;1.65;;;20.40;53.40;;;;;;5011141;28;20069;-68
2021/12/21 13:23:51;;;;;;;2.15;1.63;;;20.50;53.40;;;;;;5001260;28;20523;-76
2021/12/21 13:26:18;;;;;;;2.53;2.17;;;20.50;53.50;;;;;;5010526;28;20021;-75
2021/12/21 13:28:55;;;;;;;3.00;2.00;;;20.50;53.70;;;;;;5004454;28;20022;-74
2021/12/21 13:31:22;;;;;;;2.72;1.92;;;20.60;53.80;;;;;;5004150;28;20508;-76
2021/12/21 13:33:53;;;;;;;3.63;1.98;;;20.50;53.80;;;;;;5004582;28;20021;-66
2021/12/21 13:36:18;;;;;;;3.10;1.88;;;20.60;53.80;;;;;;4999831;28;20037;-79
2021/12/21 13:38:44;;;;;;;4.10;2.20;;;20.60;53.80;;;;;;4985142;28;20023;-82
2021/12/21 13:41:14;;;;;;;2.05;1.67;;;20.60;53.80;;;;;;5001711;28;20397;-76